Sendai, Japan

10:26 AM JST on July 29, 2014 (GMT +0900)
IMIYAGIK2 Elev 348 ft | 38.28 °N, 140.85 °E | Change Station

Current weather conditions updated 4 seconds ago

Clear
Clear
86.7 °F
Feels Like 86 °F
N
1.6
Wind Variable Wind from SE
Gusts 1.6 mph

Today is forecast to be Cooler than yesterday.

Today
High -- | Low -- °F
--% Chance of Precip.
Yesterday
High -- | Low -- °F
Precip. -- in
4:35 AM 6:49 PM
Waxing Crescent, 4% visible
Pressure 29.95 in
Visibility -9999.0 miles
Clouds
Heat Index 86 °F
Dew Point 59 °F
Humidity 39%
Rainfall 0.00 in
Snow Depth Not available.
UV Not available.
Pollen Not available.
Air Quality Not available.
Flu Activity Not available.
METAR RJSS 290100Z 11005KT 070V130 CAVOK 25/19 Q1014

More Conditions Fewer Conditions

Pressure 29.95 in
Visibility -9999.0 miles
Clouds
Heat Index 86 °F
Dew Point 59 °F
Humidity 39%
Rainfall 0.00 in
Snow Depth Not available.
UV Not available.
Pollen Not available.
Air Quality Not available.
Flu Activity Not available.
METAR RJSS 290100Z 11005KT 070V130 CAVOK 25/19 Q1014

More Conditions Fewer Conditions

10-Day Weather Forecast

Almanac

Astronomy

Jul. 29, 2014 Rise Set
Actual Time 4:35 AM JST 6:49 PM JST
Civil Twilight 4:06 AM JST 7:19 PM JST
Nautical Twilight 3:29 AM JST 7:55 PM JST
Astronomical Twilight 2:49 AM JST 8:35 PM JST
Moon 6:34 AM JST 7:45 PM JST
Length of Visible Light 15h 13m
Length of Day
14h 13m
Tomorrow will be 1m 46s shorter.
Waxing Crescent, 4% of the Moon is Illuminated
Jul 28
Waxing Crescent
Aug 3
First Quarter
Aug 10
Full
Aug 17
Last Quarter
Aug 25
New

Yesterday's Extremes

Country Highs Country Lows

Community

WunderPhotos

Upload Photos

1,738,579 photos uploaded!

WunderBlogs® & News

Nearby

Snow Depth

Not available.

Earthquake Activity

City Distance Mag. Time & Date
No recent earthquake activity has been reported nearby.
Minimum magnitude displayed is 2.5.

Coastal Water Temperatures

Place Temperature
No Stations Reporting

Nearby Weather Stations

Station Location Temp. Heat Index Dew Point Humidity Wind Precip. Elev Updated Type
SENDAI 86.7 °F 86 °F 59 °F 39% SE  at  1.6 mph 0.00 in / hr 348 ft 10:26 AM JST Rapid Fire

Show More Stations Show Fewer Stations